createdAt,value
2023-05-24T05:01:21.658Z,6.90
2023-05-24T05:03:48.366Z,6.99
2023-05-24T05:06:15.569Z,7.06
2023-05-24T05:08:42.159Z,7.18
2023-05-24T05:11:09.756Z,7.26
2023-05-24T05:13:36.425Z,7.35
2023-05-24T05:16:03.869Z,7.46
2023-05-24T05:18:30.484Z,7.54
2023-05-24T05:20:58.749Z,7.61
2023-05-24T05:23:25.343Z,7.73
2023-05-24T05:25:52.600Z,7.85
2023-05-24T05:28:19.266Z,7.98
2023-05-24T05:30:46.575Z,8.07
2023-05-24T05:33:13.302Z,8.15
2023-05-24T05:35:41.255Z,8.21
2023-05-24T05:38:08.094Z,8.28
2023-05-24T05:40:35.462Z,8.38
2023-05-24T05:43:02.113Z,8.44
2023-05-24T05:45:29.444Z,8.48
2023-05-24T05:47:56.283Z,8.50
2023-05-24T05:50:23.723Z,8.51
2023-05-24T05:52:50.587Z,8.55
2023-05-24T05:55:17.819Z,8.60
2023-05-24T05:57:44.497Z,8.73
2023-05-24T06:00:12.352Z,8.77
2023-05-24T06:02:39.022Z,8.75
2023-05-24T06:05:06.637Z,8.76
2023-05-24T06:07:33.898Z,8.85
2023-05-24T06:10:01.188Z,8.88
2023-05-24T06:12:27.782Z,8.94
2023-05-24T06:14:57.873Z,9.09
2023-05-24T06:17:24.618Z,9.40
2023-05-24T06:19:54.089Z,9.62
2023-05-24T06:22:21.637Z,9.83
2023-05-24T06:24:49.577Z,9.88
2023-05-24T06:27:16.219Z,9.96
2023-05-24T06:29:43.860Z,10.03
2023-05-24T06:32:10.786Z,10.07
2023-05-24T06:34:38.092Z,10.12
2023-05-24T06:37:04.950Z,10.09
2023-05-24T06:39:32.194Z,10.08
2023-05-24T06:41:58.905Z,10.20
2023-05-24T06:44:33.707Z,10.28
2023-05-24T06:47:02.079Z,10.33
2023-05-24T06:49:29.707Z,10.33
2023-05-24T06:51:56.482Z,10.35
2023-05-24T06:54:23.543Z,10.44
2023-05-24T06:56:50.342Z,10.47
2023-05-24T06:59:17.267Z,10.60
2023-05-24T07:01:44.317Z,10.68
2023-05-24T07:04:11.678Z,10.79
2023-05-24T07:06:39.352Z,10.93
2023-05-24T07:09:06.727Z,11.08
2023-05-24T07:11:33.477Z,11.12
2023-05-24T07:14:00.783Z,11.55
2023-05-24T07:16:27.567Z,12.04
2023-05-24T07:18:55.953Z,12.33
2023-05-24T07:21:22.660Z,12.39
2023-05-24T07:23:51.526Z,12.32
2023-05-24T07:26:19.330Z,12.52
2023-05-24T07:28:46.717Z,12.79
2023-05-24T07:31:13.408Z,12.90
2023-05-24T07:33:41.011Z,13.02
2023-05-24T07:36:08.786Z,13.08
2023-05-24T07:38:36.405Z,13.21
2023-05-24T07:41:04.641Z,13.23
2023-05-24T07:43:32.245Z,13.31
2023-05-24T07:45:58.951Z,13.40
2023-05-24T07:48:26.217Z,13.50
2023-05-24T07:50:52.839Z,13.54
2023-05-24T07:53:20.277Z,13.59
2023-05-24T07:55:47.005Z,13.70
2023-05-24T07:58:14.289Z,13.78
2023-05-24T08:00:42.006Z,13.87
2023-05-24T08:03:09.239Z,13.82
2023-05-24T08:05:35.937Z,13.81
2023-05-24T08:08:03.277Z,13.76
2023-05-24T08:10:29.980Z,13.76
2023-05-24T08:12:56.952Z,13.77
2023-05-24T08:15:24.298Z,13.80
2023-05-24T08:17:50.961Z,13.99
2023-05-24T08:20:18.395Z,14.13
2023-05-24T08:22:45.199Z,14.24
2023-05-24T08:25:12.490Z,14.52
2023-05-24T08:27:39.218Z,14.66
2023-05-24T08:30:08.414Z,14.71
2023-05-24T08:32:35.274Z,14.97
2023-05-24T08:35:14.893Z,15.39
2023-05-24T08:37:47.608Z,16.03
2023-05-24T08:40:14.359Z,16.24
2023-05-24T08:42:41.627Z,15.85
2023-05-24T08:45:12.008Z,15.65
2023-05-24T08:47:39.268Z,15.48
2023-05-24T08:50:07.723Z,15.17
2023-05-24T08:52:34.938Z,15.00
2023-05-24T08:55:04.899Z,14.99
2023-05-24T08:57:32.496Z,14.66
2023-05-24T08:59:59.861Z,14.57
2023-05-24T09:02:27.077Z,14.47
2023-05-24T09:04:55.565Z,14.54
2023-05-24T09:07:24.194Z,14.64
2023-05-24T09:09:58.555Z,14.51
2023-05-24T09:12:36.379Z,14.52
2023-05-24T09:15:07.420Z,14.53
2023-05-24T09:17:36.928Z,14.50
2023-05-24T09:20:07.527Z,14.41
2023-05-24T09:22:40.347Z,14.35
2023-05-24T09:25:10.233Z,14.32
2023-05-24T09:27:37.594Z,14.25
2023-05-24T09:30:10.304Z,14.09
2023-05-24T09:32:37.379Z,13.87
2023-05-24T09:35:09.789Z,13.68
2023-05-24T09:37:38.748Z,13.49
2023-05-24T09:40:11.240Z,13.41
2023-05-24T09:42:38.395Z,13.29
2023-05-24T09:45:10.483Z,13.16
2023-05-24T09:47:39.030Z,13.13
2023-05-24T09:50:13.159Z,13.08
2023-05-24T09:52:41.168Z,13.04
2023-05-24T09:55:19.641Z,13.05
2023-05-24T09:57:53.146Z,13.00
2023-05-24T10:00:24.311Z,12.98
2023-05-24T10:03:07.194Z,12.97
2023-05-24T10:05:36.175Z,12.89
2023-05-24T10:08:05.117Z,12.87
2023-05-24T10:10:34.033Z,12.88
2023-05-24T10:13:02.021Z,12.85
2023-05-24T10:15:30.530Z,12.79
2023-05-24T10:17:58.614Z,12.79
2023-05-24T10:20:25.530Z,12.82
2023-05-24T10:22:59.006Z,12.86
2023-05-24T10:25:28.932Z,12.84
2023-05-24T10:27:59.578Z,12.90
2023-05-24T10:30:37.747Z,12.98
2023-05-24T10:33:08.330Z,13.14
2023-05-24T10:35:38.092Z,13.27
2023-05-24T10:38:08.955Z,13.36
2023-05-24T10:40:40.982Z,13.36
2023-05-24T10:43:08.920Z,13.34
2023-05-24T10:45:40.828Z,13.35
2023-05-24T10:48:14.099Z,13.32
2023-05-24T10:50:42.542Z,13.38
2023-05-24T10:53:22.787Z,13.46
2023-05-24T10:55:59.820Z,13.47
2023-05-24T10:58:44.162Z,13.55
2023-05-24T11:01:35.401Z,13.69
2023-05-24T11:04:20.942Z,13.72
2023-05-24T11:06:58.115Z,13.80
2023-05-24T11:09:26.823Z,13.86
2023-05-24T11:12:00.413Z,13.85
2023-05-24T11:14:29.698Z,13.88
2023-05-24T11:16:57.611Z,13.96
2023-05-24T11:19:39.538Z,14.06
2023-05-24T11:22:10.022Z,14.05
2023-05-24T11:24:37.450Z,14.09
2023-05-24T11:27:06.532Z,13.97
2023-05-24T11:29:47.207Z,14.00
2023-05-24T11:32:21.787Z,14.00
2023-05-24T11:34:50.279Z,13.99
2023-05-24T11:37:18.284Z,13.95
2023-05-24T11:39:53.005Z,13.91
2023-05-24T11:42:22.742Z,13.97
2023-05-24T11:44:50.321Z,14.03
2023-05-24T11:47:21.004Z,14.18
2023-05-24T11:49:52.025Z,14.35
2023-05-24T11:52:19.595Z,14.45
2023-05-24T11:54:46.301Z,14.60
2023-05-24T11:57:14.039Z,14.72
2023-05-24T11:59:42.176Z,14.83
2023-05-24T12:02:09.558Z,14.88
2023-05-24T12:04:36.835Z,15.00
2023-05-24T12:07:03.865Z,14.94
2023-05-24T12:09:31.268Z,14.96
2023-05-24T12:11:59.172Z,14.81
2023-05-24T12:14:30.814Z,14.57
2023-05-24T12:16:59.008Z,14.69
2023-05-24T12:19:33.630Z,14.75
2023-05-24T12:22:06.420Z,14.67
2023-05-24T12:24:33.752Z,14.59
2023-05-24T12:27:03.252Z,14.50
2023-05-24T12:29:40.225Z,14.57
2023-05-24T12:32:13.928Z,14.53
2023-05-24T12:34:43.356Z,14.55
2023-05-24T12:37:15.546Z,14.61
2023-05-24T12:39:44.210Z,14.63
2023-05-24T12:42:15.859Z,14.74
2023-05-24T12:44:43.323Z,14.71
2023-05-24T12:47:10.688Z,14.79
2023-05-24T12:49:38.562Z,14.83
2023-05-24T12:52:07.165Z,14.88
2023-05-24T12:54:34.513Z,14.96
2023-05-24T12:57:02.940Z,14.97
2023-05-24T13:05:16.882Z,14.84
2023-05-24T13:07:45.986Z,14.74
2023-05-24T13:10:20.889Z,14.69
2023-05-24T13:12:48.113Z,14.68
2023-05-24T13:15:15.097Z,14.63
2023-05-24T13:17:43.234Z,14.64
2023-05-24T13:20:12.009Z,14.57
2023-05-24T13:22:40.771Z,14.51
2023-05-24T13:25:09.995Z,14.49
2023-05-24T13:27:37.023Z,14.47
2023-05-24T13:30:05.674Z,14.41
2023-05-24T13:32:32.518Z,14.38
2023-05-24T13:35:00.185Z,14.35
2023-05-24T13:37:31.129Z,14.23
2023-05-24T13:39:59.297Z,14.21
2023-05-24T13:42:28.101Z,14.24
2023-05-24T13:44:57.864Z,14.24
2023-05-24T13:47:38.748Z,14.25
2023-05-24T13:50:07.653Z,14.25
2023-05-24T13:52:35.484Z,14.30
2023-05-24T13:55:04.797Z,14.34
2023-05-24T13:57:49.874Z,14.37
2023-05-24T14:00:19.520Z,14.36
2023-05-24T14:02:46.941Z,14.29
2023-05-24T14:05:27.610Z,14.25
2023-05-24T14:08:03.570Z,14.23
2023-05-24T14:10:32.857Z,14.17
2023-05-24T14:13:20.749Z,14.14
2023-05-24T14:15:47.389Z,14.14
2023-05-24T14:18:14.490Z,14.10
2023-05-24T14:20:42.143Z,14.09
2023-05-24T14:23:10.185Z,14.03
2023-05-24T14:25:37.480Z,14.02
2023-05-24T14:28:05.071Z,14.05
2023-05-24T14:30:32.272Z,14.03
2023-05-24T14:33:01.389Z,13.98
2023-05-24T14:35:29.519Z,13.97
2023-05-24T14:37:57.168Z,13.92
2023-05-24T14:40:23.989Z,13.90
2023-05-24T14:42:51.673Z,13.92
2023-05-24T14:45:18.231Z,13.90
2023-05-24T14:47:45.591Z,13.90
2023-05-24T14:50:14.365Z,13.88
2023-05-24T14:52:41.351Z,13.89
2023-05-24T14:55:09.817Z,13.88
2023-05-24T14:57:37.539Z,13.93
2023-05-24T15:00:05.051Z,14.01
2023-05-24T15:02:34.662Z,14.09
2023-05-24T15:05:01.460Z,14.14
2023-05-24T15:07:29.068Z,14.19
2023-05-24T15:09:55.987Z,14.28
2023-05-24T15:12:23.567Z,14.34
2023-05-24T15:14:50.202Z,14.39
2023-05-24T15:17:18.973Z,14.39
2023-05-24T15:19:48.223Z,14.41
2023-05-24T15:22:14.879Z,14.41
2023-05-24T15:24:42.369Z,14.42
2023-05-24T15:27:09.284Z,14.52
2023-05-24T15:29:37.036Z,14.48
2023-05-24T15:32:04.135Z,14.50
2023-05-24T15:34:31.006Z,14.51
2023-05-24T15:36:58.614Z,14.51
2023-05-24T15:39:25.585Z,14.47
2023-05-24T15:41:53.206Z,14.47
2023-05-24T15:44:19.942Z,14.40
2023-05-24T15:46:48.056Z,14.43
2023-05-24T15:49:14.737Z,14.48
2023-05-24T15:54:14.205Z,14.43
2023-05-24T15:56:41.268Z,14.46
2023-05-24T15:59:07.826Z,14.49
2023-05-24T16:01:35.072Z,14.46
2023-05-24T16:04:02.792Z,14.48
2023-05-24T16:06:29.605Z,14.58
2023-05-24T16:08:57.185Z,14.64
2023-05-24T16:11:24.040Z,14.65
2023-05-24T16:13:53.886Z,14.74
2023-05-24T16:16:23.607Z,14.80
2023-05-24T16:18:51.882Z,14.85
2023-05-24T16:21:19.337Z,14.86
2023-05-24T16:23:46.942Z,14.90
2023-05-24T16:26:14.168Z,15.01
2023-05-24T16:28:40.844Z,15.08
2023-05-24T16:31:08.584Z,15.16
2023-05-24T16:33:35.258Z,15.21
2023-05-24T16:36:04.585Z,15.30
2023-05-24T16:38:35.201Z,15.29
2023-05-24T16:41:06.502Z,15.24
2023-05-24T16:43:34.700Z,15.18
2023-05-24T16:46:02.092Z,15.18
2023-05-24T16:48:31.936Z,15.29
2023-05-24T16:51:01.575Z,15.31
2023-05-24T16:53:28.786Z,15.27
2023-05-24T16:55:56.469Z,15.29
2023-05-24T16:58:25.083Z,15.41
2023-05-24T17:00:54.772Z,15.36
2023-05-24T17:03:27.728Z,15.36
2023-05-24T17:05:58.422Z,15.29
2023-05-24T17:08:27.795Z,15.32
2023-05-24T17:10:59.444Z,15.30
2023-05-24T17:13:29.625Z,15.27
2023-05-24T17:16:08.300Z,15.13
2023-05-24T17:18:40.844Z,15.06
2023-05-24T17:21:20.867Z,15.06
2023-05-24T17:23:51.292Z,15.09
2023-05-24T17:26:32.514Z,15.08
2023-05-24T17:32:14.568Z,14.80
2023-05-24T17:37:37.570Z,14.72
2023-05-24T17:40:09.049Z,14.66
2023-05-24T17:42:44.211Z,14.62
2023-05-24T17:45:32.000Z,14.55
2023-05-24T17:48:14.252Z,14.52
2023-05-24T17:51:04.479Z,14.48
2023-05-24T17:53:45.076Z,14.41
2023-05-24T17:56:13.841Z,14.37
2023-05-24T17:58:48.385Z,14.37
2023-05-24T18:01:16.502Z,14.33
2023-05-24T18:03:51.688Z,14.33
2023-05-24T18:06:26.488Z,14.33
2023-05-24T18:08:53.971Z,14.33
2023-05-24T18:11:21.229Z,14.29
2023-05-24T18:13:50.796Z,14.24
2023-05-24T18:16:23.777Z,14.20
2023-05-24T18:19:02.093Z,14.14
2023-05-24T18:21:38.639Z,14.12
2023-05-24T18:24:08.622Z,14.10
2023-05-24T18:26:42.050Z,14.07
2023-05-24T18:29:15.770Z,14.05
2023-05-24T18:31:42.500Z,14.02
2023-05-24T18:34:22.920Z,13.97
2023-05-24T18:36:58.536Z,13.92
2023-05-24T18:39:26.561Z,13.88
2023-05-24T18:41:56.190Z,13.84
2023-05-24T18:44:25.707Z,13.79
2023-05-24T18:46:58.382Z,13.75
2023-05-24T18:49:25.662Z,13.72
2023-05-24T18:51:53.870Z,13.67
2023-05-24T18:54:23.902Z,13.62
2023-05-24T18:56:50.636Z,13.56
2023-05-24T18:59:18.110Z,13.50
2023-05-24T19:01:44.877Z,13.45
2023-05-24T19:04:12.224Z,13.37
2023-05-24T19:06:39.202Z,13.30
2023-05-24T19:09:07.026Z,13.22
2023-05-24T19:11:33.684Z,13.16
2023-05-24T19:14:00.996Z,13.08
2023-05-24T19:16:27.677Z,12.99
2023-05-24T19:18:55.005Z,12.91
2023-05-24T19:21:23.891Z,12.84
2023-05-24T19:23:51.611Z,12.77
2023-05-24T19:26:18.835Z,12.70
2023-05-24T19:28:51.832Z,12.62
2023-05-24T19:31:18.752Z,12.54
2023-05-24T19:33:59.327Z,12.45
2023-05-24T19:36:29.459Z,12.37
2023-05-24T19:38:56.460Z,12.31
2023-05-24T19:41:23.162Z,12.25
2023-05-24T19:43:50.574Z,12.17
2023-05-24T19:46:17.220Z,12.10
2023-05-24T19:48:44.379Z,12.01
2023-05-24T19:51:13.569Z,11.95
2023-05-24T19:53:40.512Z,11.88
2023-05-24T19:56:07.166Z,11.81
2023-05-24T19:58:34.593Z,11.73
2023-05-24T20:01:01.368Z,11.65
2023-05-24T20:03:28.393Z,11.57
2023-05-24T20:05:55.886Z,11.51
2023-05-24T20:08:23.045Z,11.46
2023-05-24T20:10:52.912Z,11.38
2023-05-24T20:13:19.984Z,11.34
2023-05-24T20:15:47.393Z,11.30
2023-05-24T20:18:14.587Z,11.30
2023-05-24T20:20:41.708Z,11.26
2023-05-24T20:23:08.780Z,11.24
2023-05-24T20:25:36.070Z,11.20
2023-05-24T20:28:03.562Z,11.16
